Time;durP1;ratioP1;P1;durP2;ratioP2;P2;SDS_P1;SDS_P2;PMS_P1;PMS_P2;Temp;Humidity;BMP_temperature;BMP_pressure;BME280_temperature;BME280_humidity;BME280_pressure;Samples;Min_cycle;Max_cycle;Signal;HPM_P1;HPM_P2
2023/02/20 00:01:55;;;;;;;25.47;23.43;;;;;;;;;;5144043;27;20523;-81
2023/02/20 00:04:22;;;;;;;24.10;22.50;;;;;;;;;;5144016;27;20456;-81
2023/02/20 00:06:48;;;;;;;25.20;23.50;;;;;;;;;;5145608;27;20471;-81
2023/02/20 00:09:15;;;;;;;26.13;24.17;;;;;;;;;;5144555;27;20472;-81
2023/02/20 00:11:42;;;;;;;27.93;25.77;;;;;;;;;;5143842;27;20471;-81
2023/02/20 00:14:11;;;;;;;28.00;25.87;;;;;;;;;;5142431;27;20491;-81
2023/02/20 00:16:38;;;;;;;24.80;23.10;;;;;;;;;;5139689;27;20459;-81
2023/02/20 00:19:05;;;;;;;28.70;26.40;;;;;;;;;;5139151;27;21009;-81
2023/02/20 00:21:32;;;;;;;28.60;26.17;;;;;;;;;;5139163;27;20422;-81
2023/02/20 00:23:59;;;;;;;28.30;26.00;;;;;;;;;;5138707;27;20468;-82
2023/02/20 00:26:26;;;;;;;27.43;25.43;;;;;;;;;;5139300;27;21016;-81
2023/02/20 00:28:53;;;;;;;24.00;22.20;;;;;;;;;;5140654;27;20443;-83
2023/02/20 00:31:21;;;;;;;25.93;23.93;;;;;;;;;;5141516;27;20410;-81
2023/02/20 00:33:48;;;;;;;28.27;26.07;;;;;;;;;;5139225;27;20528;-81
2023/02/20 00:36:16;;;;;;;26.40;24.50;;;;;;;;;;5139935;27;20463;-81
2023/02/20 00:38:43;;;;;;;26.60;24.63;;;;;;;;;;5139134;27;20461;-80
2023/02/20 00:41:12;;;;;;;32.00;29.23;;;;;;;;;;5138734;27;20479;-82
2023/02/20 00:43:39;;;;;;;26.83;24.70;;;;;;;;;;5138049;27;20455;-81
2023/02/20 00:46:07;;;;;;;28.57;26.20;;;;;;;;;;5139678;27;20505;-82
2023/02/20 00:48:35;;;;;;;23.70;21.90;;;;;;;;;;5140175;27;20937;-81
2023/02/20 00:51:02;;;;;;;30.87;28.00;;;;;;;;;;5142385;27;20848;-82
2023/02/20 00:53:29;;;;;;;30.47;27.87;;;;;;;;;;5138104;27;20462;-81
2023/02/20 00:55:56;;;;;;;31.87;28.97;;;;;;;;;;5138818;27;20508;-82
2023/02/20 00:58:23;;;;;;;27.83;25.60;;;;;;;;;;5139451;27;20442;-81
2023/02/20 01:00:50;;;;;;;28.53;26.23;;;;;;;;;;5139126;27;20500;-81
2023/02/20 01:03:17;;;;;;;31.23;28.37;;;;;;;;;;5138527;27;20507;-82
2023/02/20 01:05:45;;;;;;;31.83;29.23;;;;;;;;;;5139193;27;20500;-81
2023/02/20 01:08:12;;;;;;;30.43;27.80;;;;;;;;;;5140471;27;20507;-82
2023/02/20 01:10:39;;;;;;;23.00;21.50;;;;;;;;;;5143387;27;20922;-80
2023/02/20 01:13:06;;;;;;;28.90;26.50;;;;;;;;;;5143822;27;20799;-81
2023/02/20 01:15:33;;;;;;;27.37;25.17;;;;;;;;;;5144755;27;20483;-82
2023/02/20 01:18:00;;;;;;;31.00;28.30;;;;;;;;;;5144468;27;20447;-82
2023/02/20 01:20:27;;;;;;;23.77;22.13;;;;;;;;;;5143505;28;20487;-81
2023/02/20 01:22:55;;;;;;;26.73;24.40;;;;;;;;;;5142990;28;20421;-81
2023/02/20 01:25:22;;;;;;;29.85;27.00;;;;;;;;;;5143251;27;20512;-81
2023/02/20 01:27:49;;;;;;;28.20;25.95;;;;;;;;;;5144712;28;20618;-82
2023/02/20 01:30:16;;;;;;;28.55;26.15;;;;;;;;;;5143860;28;20193;-81
2023/02/20 01:32:43;;;;;;;29.37;26.90;;;;;;;;;;5143919;28;20251;-82
2023/02/20 01:35:10;;;;;;;25.13;23.13;;;;;;;;;;5143577;27;20505;-81
2023/02/20 01:37:37;;;;;;;25.83;24.03;;;;;;;;;;5143132;28;20475;-81
2023/02/20 01:40:06;;;;;;;29.23;26.90;;;;;;;;;;5143660;28;20478;-81
2023/02/20 01:42:34;;;;;;;26.00;24.00;;;;;;;;;;5143654;28;20941;-82
2023/02/20 01:45:19;;;;;;;29.80;27.00;;;;;;;;;;5141428;27;20504;-82
2023/02/20 01:47:46;;;;;;;28.40;26.10;;;;;;;;;;5144284;28;20535;-81
2023/02/20 01:50:14;;;;;;;25.93;23.83;;;;;;;;;;5143788;28;20443;-81
2023/02/20 01:52:41;;;;;;;28.73;26.43;;;;;;;;;;5144130;28;20442;-82
2023/02/20 01:55:11;;;;;;;29.00;26.00;;;;;;;;;;5140729;27;20591;-81
2023/02/20 01:57:40;;;;;;;29.13;26.43;;;;;;;;;;5141776;28;20419;-81
2023/02/20 02:00:09;;;;;;;24.90;22.90;;;;;;;;;;5140831;28;20475;-81
2023/02/20 02:02:38;;;;;;;29.43;26.80;;;;;;;;;;5139693;28;20442;-81
2023/02/20 02:05:05;;;;;;;28.47;25.87;;;;;;;;;;5138539;27;20482;-81
2023/02/20 02:07:33;;;;;;;30.03;27.30;;;;;;;;;;5141481;27;20432;-81
2023/02/20 02:10:02;;;;;;;25.33;23.33;;;;;;;;;;5144036;27;20439;-82
2023/02/20 02:12:30;;;;;;;29.13;26.73;;;;;;;;;;5142824;27;20500;-81
2023/02/20 02:14:57;;;;;;;29.07;26.47;;;;;;;;;;5142953;27;20221;-82
2023/02/20 02:17:38;;;;;;;30.03;27.53;;;;;;;;;;5143839;27;20457;-82
2023/02/20 02:20:21;;;;;;;27.23;25.10;;;;;;;;;;5142942;27;20490;-82
2023/02/20 02:23:03;;;;;;;28.87;26.30;;;;;;;;;;5142477;27;20432;-81
2023/02/20 02:25:37;;;;;;;27.90;25.60;;;;;;;;;;5142640;27;20983;-81
2023/02/20 02:28:14;;;;;;;26.98;24.85;;;;;;;;;;5141575;27;20438;-81
2023/02/20 02:30:58;;;;;;;26.10;23.93;;;;;;;;;;5142067;27;20189;-81
2023/02/20 02:33:43;;;;;;;26.80;24.65;;;;;;;;;;5141685;27;20427;-81
2023/02/20 02:36:21;;;;;;;22.97;21.27;;;;;;;;;;5140749;27;20239;-81
2023/02/20 02:38:52;;;;;;;24.75;22.55;;;;;;;;;;5142792;27;20428;-81
2023/02/20 02:41:22;;;;;;;28.42;26.02;;;;;;;;;;5142071;27;20205;-82
2023/02/20 02:43:54;;;;;;;25.20;23.15;;;;;;;;;;5142093;27;20207;-81
2023/02/20 02:46:23;;;;;;;29.10;26.60;;;;;;;;;;5141581;27;20217;-81
2023/02/20 02:48:54;;;;;;;23.38;21.50;;;;;;;;;;5142435;27;20211;-81
2023/02/20 02:51:26;;;;;;;27.58;25.48;;;;;;;;;;5140727;27;20203;-82
2023/02/20 02:54:05;;;;;;;22.02;20.60;;;;;;;;;;5142008;27;20190;-81
2023/02/20 02:56:34;;;;;;;22.95;21.38;;;;;;;;;;5141038;27;20283;-81
2023/02/20 02:59:01;;;;;;;27.85;25.45;;;;;;;;;;5142658;27;20205;-81
2023/02/20 03:01:28;;;;;;;27.15;24.50;;;;;;;;;;5141859;27;20289;-82
2023/02/20 03:03:57;;;;;;;26.97;24.80;;;;;;;;;;5142882;27;20219;-81
2023/02/20 03:06:33;;;;;;;29.97;27.27;;;;;;;;;;5142651;27;20928;-81
2023/02/20 03:09:02;;;;;;;28.20;25.83;;;;;;;;;;5142067;27;20458;-81
2023/02/20 03:11:30;;;;;;;25.20;23.17;;;;;;;;;;5142570;27;20198;-81
2023/02/20 03:16:46;;;;;;;24.80;22.77;;;;;;;;;;5141759;27;20219;-81
2023/02/20 03:19:14;;;;;;;28.80;26.30;;;;;;;;;;5141489;27;20433;-81
2023/02/20 03:21:43;;;;;;;25.20;23.25;;;;;;;;;;5142017;27;20225;-81
2023/02/20 03:24:12;;;;;;;27.52;25.40;;;;;;;;;;5142461;27;20231;-81
2023/02/20 03:26:40;;;;;;;27.63;25.30;;;;;;;;;;5141718;27;20697;-81
2023/02/20 03:29:09;;;;;;;25.03;23.03;;;;;;;;;;5140725;27;20431;-82
2023/02/20 03:31:38;;;;;;;23.30;21.70;;;;;;;;;;5142031;27;20443;-81
2023/02/20 03:45:13;;;;;;;26.25;23.98;;;;;;;;;;5141712;27;20412;-81
2023/02/20 03:47:43;;;;;;;23.90;22.15;;;;;;;;;;5142631;27;20216;-82
2023/02/20 03:52:57;;;;;;;25.35;23.25;;;;;;;;;;5141782;27;20184;-81
2023/02/20 03:55:24;;;;;;;25.40;23.40;;;;;;;;;;5141620;27;20264;-82
2023/02/20 03:57:53;;;;;;;28.20;25.60;;;;;;;;;;5142183;27;20466;-82
2023/02/20 04:00:22;;;;;;;26.87;24.27;;;;;;;;;;5141481;27;20482;-82
2023/02/20 04:02:53;;;;;;;23.40;21.60;;;;;;;;;;5141259;27;20443;-81
2023/02/20 04:05:21;;;;;;;29.40;26.70;;;;;;;;;;5142202;27;20251;-82
2023/02/20 04:07:52;;;;;;;30.20;27.17;;;;;;;;;;5141578;27;20201;-80
2023/02/20 04:10:22;;;;;;;27.13;24.60;;;;;;;;;;5141947;27;20254;-81
2023/02/20 04:12:50;;;;;;;26.25;23.85;;;;;;;;;;5141382;27;20425;-81
2023/02/20 04:15:17;;;;;;;25.37;23.50;;;;;;;;;;5141111;27;20218;-82
2023/02/20 04:17:47;;;;;;;26.23;23.88;;;;;;;;;;5141629;27;20447;-81
2023/02/20 04:20:14;;;;;;;29.15;26.42;;;;;;;;;;5140963;27;20213;-81
2023/02/20 04:22:44;;;;;;;26.37;24.20;;;;;;;;;;5140652;27;20186;-81
2023/02/20 04:25:14;;;;;;;29.73;26.37;;;;;;;;;;5141238;27;20422;-82
2023/02/20 04:27:42;;;;;;;28.48;25.88;;;;;;;;;;5141420;27;20439;-81
2023/02/20 04:30:10;;;;;;;27.27;24.75;;;;;;;;;;5140419;27;20201;-82
2023/02/20 04:32:37;;;;;;;24.27;22.38;;;;;;;;;;5139739;27;20208;-81
2023/02/20 04:35:04;;;;;;;26.60;24.55;;;;;;;;;;5140254;27;20271;-81
2023/02/20 04:37:31;;;;;;;29.00;26.40;;;;;;;;;;5139682;27;20193;-82
2023/02/20 04:39:58;;;;;;;24.98;22.40;;;;;;;;;;5139148;27;20465;-81
2023/02/20 04:42:25;;;;;;;24.73;22.63;;;;;;;;;;5139425;27;20226;-82
2023/02/20 04:44:54;;;;;;;25.45;23.33;;;;;;;;;;5139712;27;20562;-81
2023/02/20 04:47:21;;;;;;;25.65;23.42;;;;;;;;;;5140524;27;20209;-81
2023/02/20 04:49:48;;;;;;;27.13;24.73;;;;;;;;;;5140532;27;20205;-82
2023/02/20 04:52:15;;;;;;;25.92;23.77;;;;;;;;;;5140510;27;20209;-81
2023/02/20 04:54:42;;;;;;;22.33;20.75;;;;;;;;;;5140464;27;20238;-82
2023/02/20 04:57:09;;;;;;;27.70;25.10;;;;;;;;;;5139993;27;20193;-81
2023/02/20 04:59:36;;;;;;;22.83;21.20;;;;;;;;;;5140750;27;20443;-81
2023/02/20 05:02:04;;;;;;;28.37;25.63;;;;;;;;;;5138961;27;20551;-81
2023/02/20 05:04:31;;;;;;;23.60;21.95;;;;;;;;;;5140152;27;20472;-81
2023/02/20 05:06:58;;;;;;;25.93;23.90;;;;;;;;;;5140219;27;20250;-81
2023/02/20 05:09:25;;;;;;;25.80;23.60;;;;;;;;;;5139989;27;20492;-81
2023/02/20 05:11:52;;;;;;;23.15;21.52;;;;;;;;;;5138732;27;20209;-82
2023/02/20 05:14:20;;;;;;;24.53;22.43;;;;;;;;;;5139670;27;20226;-81
2023/02/20 05:16:50;;;;;;;26.23;23.83;;;;;;;;;;5139322;27;20467;-81
2023/02/20 05:19:18;;;;;;;26.37;23.93;;;;;;;;;;5139166;27;20201;-82
2023/02/20 05:24:31;;;;;;;26.80;24.47;;;;;;;;;;5139182;27;20203;-82
2023/02/20 05:26:58;;;;;;;27.58;25.25;;;;;;;;;;5139837;28;20466;-80
2023/02/20 05:29:25;;;;;;;24.37;22.50;;;;;;;;;;5140142;28;20205;-81
2023/02/20 05:31:52;;;;;;;22.98;21.30;;;;;;;;;;5140000;28;20491;-82
2023/02/20 05:34:21;;;;;;;24.70;22.70;;;;;;;;;;5139516;27;20207;-81
2023/02/20 05:36:48;;;;;;;24.10;22.10;;;;;;;;;;5139901;28;20496;-81
2023/02/20 05:39:15;;;;;;;24.42;22.50;;;;;;;;;;5140575;28;20430;-81
2023/02/20 05:41:42;;;;;;;23.93;21.97;;;;;;;;;;5141657;27;20270;-81
2023/02/20 05:44:09;;;;;;;26.37;24.17;;;;;;;;;;5144084;27;20496;-81
2023/02/20 05:46:40;;;;;;;24.37;22.17;;;;;;;;;;5143707;27;20993;-81
2023/02/20 05:49:07;;;;;;;26.47;24.07;;;;;;;;;;5145261;27;20515;-81
2023/02/20 05:51:35;;;;;;;22.93;21.20;;;;;;;;;;5143883;27;20439;-81
2023/02/20 05:54:02;;;;;;;23.95;22.15;;;;;;;;;;5144863;27;20468;-82
2023/02/20 05:56:31;;;;;;;24.07;21.63;;;;;;;;;;5143792;27;20246;-81
2023/02/20 05:58:58;;;;;;;23.73;21.97;;;;;;;;;;5144158;27;20461;-81
2023/02/20 06:01:26;;;;;;;20.90;19.43;;;;;;;;;;5142794;27;20545;-82
2023/02/20 06:03:54;;;;;;;24.13;22.30;;;;;;;;;;5143674;27;20488;-81
2023/02/20 06:06:21;;;;;;;25.48;23.33;;;;;;;;;;5141918;27;20522;-81
2023/02/20 06:08:49;;;;;;;24.17;22.27;;;;;;;;;;5143255;27;20201;-82
2023/02/20 06:11:16;;;;;;;21.87;20.37;;;;;;;;;;5143033;27;20930;-82
2023/02/20 06:13:45;;;;;;;24.73;22.73;;;;;;;;;;5142662;27;20502;-83
2023/02/20 06:16:12;;;;;;;25.43;22.73;;;;;;;;;;5141879;27;20798;-81
2023/02/20 06:18:39;;;;;;;25.93;23.60;;;;;;;;;;5143830;27;20423;-81
2023/02/20 06:21:07;;;;;;;22.97;21.27;;;;;;;;;;5143089;27;20569;-81
2023/02/20 06:23:34;;;;;;;24.48;22.58;;;;;;;;;;5142577;27;20442;-81
2023/02/20 06:26:02;;;;;;;23.00;21.03;;;;;;;;;;5143077;27;20225;-82
2023/02/20 06:28:29;;;;;;;22.73;21.00;;;;;;;;;;5143432;27;20434;-81
2023/02/20 06:30:56;;;;;;;26.07;23.87;;;;;;;;;;5142272;27;20470;-81
2023/02/20 06:33:23;;;;;;;23.33;21.23;;;;;;;;;;5142795;27;20476;-81
2023/02/20 06:35:50;;;;;;;25.17;23.07;;;;;;;;;;5142546;27;20491;-81
2023/02/20 06:38:17;;;;;;;25.17;22.83;;;;;;;;;;5143873;27;20455;-81
2023/02/20 06:40:44;;;;;;;27.90;25.27;;;;;;;;;;5142550;27;20475;-82
2023/02/20 06:43:13;;;;;;;24.93;23.00;;;;;;;;;;5142447;27;20451;-81
2023/02/20 06:45:40;;;;;;;22.27;20.73;;;;;;;;;;5143134;27;20510;-82
2023/02/20 06:48:07;;;;;;;26.57;24.33;;;;;;;;;;5142806;27;20474;-82
2023/02/20 06:50:34;;;;;;;24.07;22.30;;;;;;;;;;5142892;27;20472;-83
2023/02/20 06:53:01;;;;;;;23.17;21.63;;;;;;;;;;5140588;27;20515;-83
2023/02/20 06:55:28;;;;;;;25.47;22.73;;;;;;;;;;5141677;27;20225;-82
2023/02/20 06:57:55;;;;;;;20.27;19.00;;;;;;;;;;5141899;27;20447;-83
2023/02/20 07:00:23;;;;;;;26.60;24.23;;;;;;;;;;5141245;27;20417;-83
2023/02/20 07:02:50;;;;;;;29.93;26.40;;;;;;;;;;5141945;27;20455;-82
2023/02/20 07:05:17;;;;;;;27.50;25.40;;;;;;;;;;5140873;27;20457;-83
2023/02/20 07:07:44;;;;;;;27.08;24.58;;;;;;;;;;5142026;27;20475;-83
2023/02/20 07:10:11;;;;;;;24.77;22.47;;;;;;;;;;5142031;27;20198;-83
2023/02/20 07:12:38;;;;;;;29.58;26.58;;;;;;;;;;5140960;27;20962;-86
2023/02/20 07:15:06;;;;;;;33.13;30.03;;;;;;;;;;5143672;27;20233;-86
2023/02/20 07:17:35;;;;;;;31.13;28.50;;;;;;;;;;5143180;27;20986;-86
2023/02/20 07:20:03;;;;;;;32.00;28.87;;;;;;;;;;5142377;27;20476;-84
2023/02/20 07:22:30;;;;;;;38.95;34.88;;;;;;;;;;5140933;27;20522;-83
2023/02/20 07:24:57;;;;;;;31.57;28.33;;;;;;;;;;5142093;27;20214;-84
2023/02/20 07:27:24;;;;;;;27.00;24.90;;;;;;;;;;5143284;27;20447;-86
2023/02/20 07:29:51;;;;;;;31.60;28.60;;;;;;;;;;5143478;27;20511;-87
2023/02/20 07:32:19;;;;;;;35.83;32.43;;;;;;;;;;5142004;27;20492;-83
2023/02/20 07:34:48;;;;;;;33.43;30.50;;;;;;;;;;5141700;27;20489;-84
2023/02/20 07:37:15;;;;;;;29.60;26.80;;;;;;;;;;5141464;27;20444;-84
2023/02/20 07:39:42;;;;;;;32.13;29.20;;;;;;;;;;5142447;27;20438;-87
2023/02/20 07:42:09;;;;;;;34.33;31.20;;;;;;;;;;5142809;27;20499;-87
2023/02/20 07:44:36;;;;;;;37.27;33.70;;;;;;;;;;5143438;27;20189;-86
2023/02/20 07:47:03;;;;;;;37.17;32.90;;;;;;;;;;5142295;27;20480;-83
2023/02/20 07:49:30;;;;;;;31.63;28.77;;;;;;;;;;5141712;27;20443;-84
2023/02/20 07:51:58;;;;;;;48.25;39.80;;;;;;;;;;5140277;27;20439;-87
2023/02/20 07:54:26;;;;;;;33.13;29.65;;;;;;;;;;5141607;27;20209;-86
2023/02/20 07:56:54;;;;;;;33.90;30.60;;;;;;;;;;5142425;27;20217;-86
2023/02/20 07:59:21;;;;;;;41.37;37.23;;;;;;;;;;5142285;27;20450;-87
2023/02/20 08:01:48;;;;;;;40.38;36.03;;;;;;;;;;5142654;27;21100;-87
2023/02/20 08:04:15;;;;;;;31.43;28.60;;;;;;;;;;5141266;27;20205;-87
2023/02/20 08:06:42;;;;;;;42.90;38.50;;;;;;;;;;5141167;27;20504;-87
2023/02/20 08:09:10;;;;;;;33.13;30.00;;;;;;;;;;5141511;27;20446;-86
2023/02/20 08:11:38;;;;;;;33.57;30.50;;;;;;;;;;5141122;27;20473;-87
2023/02/20 08:14:06;;;;;;;37.60;33.75;;;;;;;;;;5140025;27;20436;-86
2023/02/20 08:16:33;;;;;;;31.30;28.45;;;;;;;;;;5139370;27;20228;-86
2023/02/20 08:19:00;;;;;;;32.40;29.40;;;;;;;;;;5140010;27;20288;-84
2023/02/20 08:21:28;;;;;;;40.17;33.57;;;;;;;;;;5139753;27;20464;-85
2023/02/20 08:23:55;;;;;;;41.35;36.28;;;;;;;;;;5139129;27;20438;-86
2023/02/20 08:26:23;;;;;;;34.30;31.40;;;;;;;;;;5140367;27;20277;-85
2023/02/20 08:28:51;;;;;;;29.80;27.27;;;;;;;;;;5140093;27;20516;-86
2023/02/20 08:31:18;;;;;;;36.37;32.53;;;;;;;;;;5139948;27;20443;-81
2023/02/20 08:33:45;;;;;;;37.17;33.27;;;;;;;;;;5140999;27;20473;-85
2023/02/20 08:36:14;;;;;;;42.53;37.90;;;;;;;;;;5142256;27;20471;-85
2023/02/20 08:38:41;;;;;;;38.05;34.83;;;;;;;;;;5140696;27;20445;-86
2023/02/20 08:41:09;;;;;;;31.55;28.65;;;;;;;;;;5138616;27;20519;-87
2023/02/20 08:43:38;;;;;;;43.97;39.47;;;;;;;;;;5139917;27;20242;-85
2023/02/20 08:46:05;;;;;;;38.60;34.80;;;;;;;;;;5140425;27;20508;-86
2023/02/20 08:48:32;;;;;;;33.63;30.23;;;;;;;;;;5140624;27;20516;-86
2023/02/20 08:50:59;;;;;;;31.60;29.08;;;;;;;;;;5139488;27;20462;-86
2023/02/20 08:53:26;;;;;;;39.67;35.53;;;;;;;;;;5140198;27;20197;-86
2023/02/20 08:55:53;;;;;;;40.40;36.35;;;;;;;;;;5140270;27;20221;-86
2023/02/20 08:58:21;;;;;;;41.67;37.50;;;;;;;;;;5140321;27;20235;-86
2023/02/20 09:00:50;;;;;;;41.70;37.25;;;;;;;;;;5139851;27;20563;-86
2023/02/20 09:03:17;;;;;;;48.33;42.80;;;;;;;;;;5139643;27;20213;-86
2023/02/20 09:05:44;;;;;;;43.20;35.63;;;;;;;;;;5140237;27;20276;-87
2023/02/20 09:08:11;;;;;;;44.17;39.53;;;;;;;;;;5141048;27;20435;-86
2023/02/20 09:10:38;;;;;;;44.13;39.50;;;;;;;;;;5139855;27;20254;-86
2023/02/20 09:13:05;;;;;;;34.50;31.63;;;;;;;;;;5139419;27;20454;-86
2023/02/20 09:15:37;;;;;;;31.35;28.17;;;;;;;;;;5139193;27;20500;-86
2023/02/20 09:18:08;;;;;;;41.50;37.47;;;;;;;;;;5139950;27;20248;-88
2023/02/20 09:20:35;;;;;;;42.13;37.80;;;;;;;;;;5139268;27;20466;-87
2023/02/20 09:23:02;;;;;;;33.13;29.95;;;;;;;;;;5139522;28;20990;-86
2023/02/20 09:25:29;;;;;;;31.80;29.00;;;;;;;;;;5140314;28;20266;-87
2023/02/20 09:27:56;;;;;;;36.03;32.60;;;;;;;;;;5139339;28;20193;-87
2023/02/20 09:30:24;;;;;;;42.57;37.97;;;;;;;;;;5140060;28;20444;-88
2023/02/20 09:32:51;;;;;;;32.97;30.07;;;;;;;;;;5138857;28;20507;-86
2023/02/20 09:35:21;;;;;;;34.80;31.52;;;;;;;;;;5139292;27;20537;-87
2023/02/20 09:37:48;;;;;;;41.30;37.10;;;;;;;;;;5139442;28;20223;-86
2023/02/20 09:40:16;;;;;;;30.23;27.23;;;;;;;;;;5139642;28;20485;-86
2023/02/20 09:42:47;;;;;;;32.93;30.07;;;;;;;;;;5138520;28;20246;-86
2023/02/20 09:45:17;;;;;;;42.67;38.00;;;;;;;;;;5140263;28;20477;-86
2023/02/20 09:47:53;;;;;;;39.20;35.25;;;;;;;;;;5139876;28;20439;-86
2023/02/20 09:50:29;;;;;;;33.75;30.17;;;;;;;;;;5138867;27;20201;-85
2023/02/20 09:52:58;;;;;;;36.63;32.60;;;;;;;;;;5138890;28;20193;-86
2023/02/20 09:55:35;;;;;;;30.77;28.30;;;;;;;;;;5138962;28;20743;-86
2023/02/20 09:58:04;;;;;;;43.40;39.10;;;;;;;;;;5138744;28;20220;-86
2023/02/20 10:00:32;;;;;;;36.27;32.87;;;;;;;;;;5139124;28;20734;-86
2023/02/20 10:03:07;;;;;;;38.13;34.33;;;;;;;;;;5139009;28;20474;-86
2023/02/20 10:05:37;;;;;;;29.30;26.73;;;;;;;;;;5140042;27;20507;-86
2023/02/20 10:08:04;;;;;;;35.70;32.17;;;;;;;;;;5140361;28;20653;-86
2023/02/20 10:10:37;;;;;;;33.47;30.27;;;;;;;;;;5141122;28;20457;-87
2023/02/20 10:13:10;;;;;;;33.30;30.03;;;;;;;;;;5139124;28;20491;-86
2023/02/20 10:15:43;;;;;;;44.65;39.88;;;;;;;;;;5139880;27;20475;-85
2023/02/20 10:18:16;;;;;;;36.53;30.30;;;;;;;;;;5141753;28;20565;-86
2023/02/20 10:20:47;;;;;;;36.13;32.33;;;;;;;;;;5141872;28;20468;-85
2023/02/20 10:23:16;;;;;;;32.20;28.97;;;;;;;;;;5139412;28;20470;-84
2023/02/20 10:25:49;;;;;;;51.60;45.63;;;;;;;;;;5137261;27;20491;-84
2023/02/20 10:28:17;;;;;;;45.00;34.73;;;;;;;;;;5139642;27;20397;-85
2023/02/20 10:30:46;;;;;;;45.27;37.80;;;;;;;;;;5141619;27;20443;-85
2023/02/20 10:33:19;;;;;;;36.27;32.03;;;;;;;;;;5141074;27;20427;-85
2023/02/20 10:35:50;;;;;;;38.70;34.70;;;;;;;;;;5141313;27;20459;-86
2023/02/20 10:38:21;;;;;;;47.25;37.80;;;;;;;;;;5140646;27;20484;-86
2023/02/20 10:40:49;;;;;;;40.45;35.97;;;;;;;;;;5141961;27;20633;-84
2023/02/20 10:43:19;;;;;;;35.20;31.55;;;;;;;;;;5143198;27;20239;-85
2023/02/20 10:45:51;;;;;;;36.38;32.00;;;;;;;;;;5143855;27;20221;-85
2023/02/20 10:48:18;;;;;;;28.80;26.50;;;;;;;;;;5142970;27;20185;-85
2023/02/20 10:50:49;;;;;;;36.83;33.03;;;;;;;;;;5142497;27;20455;-86
2023/02/20 10:53:25;;;;;;;50.80;39.92;;;;;;;;;;5145236;27;20427;-85
2023/02/20 10:55:54;;;;;;;35.20;31.47;;;;;;;;;;5142939;27;20225;-86
2023/02/20 10:58:24;;;;;;;33.07;30.07;;;;;;;;;;5141136;27;20448;-86
2023/02/20 11:00:54;;;;;;;37.20;33.25;;;;;;;;;;5142521;27;20410;-85
2023/02/20 11:03:24;;;;;;;31.47;28.17;;;;;;;;;;5141670;27;20224;-85
2023/02/20 11:05:54;;;;;;;45.90;38.33;;;;;;;;;;5145269;27;20893;-83
2023/02/20 11:08:21;;;;;;;38.33;34.20;;;;;;;;;;5145049;27;20414;-83
2023/02/20 11:10:48;;;;;;;39.00;34.80;;;;;;;;;;5142489;27;20946;-87
2023/02/20 11:13:18;;;;;;;37.47;33.57;;;;;;;;;;5141012;27;20734;-85
2023/02/20 11:15:45;;;;;;;37.00;32.60;;;;;;;;;;5140974;27;20475;-85
2023/02/20 11:18:20;;;;;;;31.87;28.53;;;;;;;;;;5141249;27;20921;-86
2023/02/20 11:20:48;;;;;;;32.47;29.30;;;;;;;;;;5141839;27;20891;-83
2023/02/20 11:23:36;;;;;;;35.73;32.00;;;;;;;;;;5141278;27;20482;-84
2023/02/20 11:26:14;;;;;;;36.20;30.23;;;;;;;;;;5140630;27;20455;-84
2023/02/20 11:28:41;;;;;;;39.30;34.37;;;;;;;;;;5140729;27;20569;-86
2023/02/20 11:31:08;;;;;;;35.13;31.55;;;;;;;;;;5141851;27;20451;-86
2023/02/20 11:33:38;;;;;;;37.70;33.97;;;;;;;;;;5141113;27;20222;-84
2023/02/20 11:36:11;;;;;;;35.93;32.10;;;;;;;;;;5140933;27;20458;-85
2023/02/20 11:38:40;;;;;;;32.10;28.40;;;;;;;;;;5141671;27;20844;-85
2023/02/20 11:41:10;;;;;;;44.83;39.87;;;;;;;;;;5141605;27;20429;-85
2023/02/20 11:43:38;;;;;;;37.43;33.37;;;;;;;;;;5140721;27;20462;-85
2023/02/20 11:46:09;;;;;;;39.40;34.30;;;;;;;;;;5140425;27;20467;-85
2023/02/20 11:48:36;;;;;;;33.27;30.07;;;;;;;;;;5140527;27;20455;-85
2023/02/20 11:51:04;;;;;;;34.30;29.87;;;;;;;;;;5140467;27;20450;-84
2023/02/20 11:53:31;;;;;;;42.00;36.13;;;;;;;;;;5141109;27;20513;-85
2023/02/20 11:56:10;;;;;;;40.13;36.13;;;;;;;;;;5140588;27;20449;-83
2023/02/20 11:58:38;;;;;;;52.47;42.17;;;;;;;;;;5140258;27;20861;-85
2023/02/20 12:01:05;;;;;;;36.00;28.57;;;;;;;;;;5141277;27;20454;-85
2023/02/20 12:03:33;;;;;;;37.60;33.57;;;;;;;;;;5140696;27;20470;-85
2023/02/20 12:06:02;;;;;;;35.73;31.87;;;;;;;;;;5141842;27;20475;-85
2023/02/20 12:08:45;;;;;;;40.20;31.33;;;;;;;;;;5141138;27;20451;-84
2023/02/20 12:11:16;;;;;;;36.90;31.93;;;;;;;;;;5139654;27;20481;-86
2023/02/20 12:13:44;;;;;;;35.22;31.83;;;;;;;;;;5140038;27;20466;-85
2023/02/20 12:16:22;;;;;;;34.13;30.77;;;;;;;;;;5140149;27;20221;-86
2023/02/20 12:18:52;;;;;;;42.27;36.23;;;;;;;;;;5140626;27;20187;-85
2023/02/20 12:21:25;;;;;;;33.23;30.00;;;;;;;;;;5138853;27;20534;-86
2023/02/20 12:24:01;;;;;;;29.90;27.63;;;;;;;;;;5140260;27;20467;-86
2023/02/20 12:26:41;;;;;;;34.90;31.17;;;;;;;;;;5140519;27;20501;-85
2023/02/20 12:29:12;;;;;;;36.03;32.00;;;;;;;;;;5139508;27;20437;-85
2023/02/20 12:31:48;;;;;;;43.58;33.95;;;;;;;;;;5138238;27;20454;-85
2023/02/20 12:34:25;;;;;;;40.40;34.93;;;;;;;;;;5140097;27;20244;-84
2023/02/20 12:36:55;;;;;;;36.60;31.23;;;;;;;;;;5138954;27;20455;-85
2023/02/20 12:39:27;;;;;;;31.57;28.77;;;;;;;;;;5139864;27;20476;-86
2023/02/20 12:42:01;;;;;;;30.60;27.80;;;;;;;;;;5139728;27;20428;-85
2023/02/20 12:44:35;;;;;;;34.07;30.77;;;;;;;;;;5140363;27;20465;-85
2023/02/20 12:47:05;;;;;;;45.00;37.07;;;;;;;;;;5139852;27;20471;-85
2023/02/20 12:49:43;;;;;;;37.80;34.10;;;;;;;;;;5140183;27;20411;-85
2023/02/20 12:52:18;;;;;;;33.33;30.13;;;;;;;;;;5139005;27;20412;-85
2023/02/20 12:54:50;;;;;;;32.90;29.97;;;;;;;;;;5139668;27;20421;-87
2023/02/20 12:57:20;;;;;;;37.67;31.43;;;;;;;;;;5140596;27;20417;-85
2023/02/20 12:59:51;;;;;;;42.40;37.47;;;;;;;;;;5139746;27;20458;-85
2023/02/20 13:02:21;;;;;;;34.90;31.47;;;;;;;;;;5139295;27;20403;-85
2023/02/20 13:04:51;;;;;;;34.20;30.80;;;;;;;;;;5140284;27;20462;-85
2023/02/20 13:07:20;;;;;;;40.20;36.13;;;;;;;;;;5140015;27;20439;-84
2023/02/20 13:09:55;;;;;;;33.33;29.93;;;;;;;;;;5138993;27;20460;-85
2023/02/20 13:12:24;;;;;;;34.27;30.80;;;;;;;;;;5139339;27;20542;-85
2023/02/20 13:14:58;;;;;;;41.83;37.70;;;;;;;;;;5139919;27;20444;-86
2023/02/20 13:17:31;;;;;;;36.20;32.43;;;;;;;;;;5140536;27;20442;-86
2023/02/20 13:20:00;;;;;;;36.33;32.60;;;;;;;;;;5140158;27;20471;-86
2023/02/20 13:22:27;;;;;;;30.73;27.83;;;;;;;;;;5139318;28;20435;-85
2023/02/20 13:24:54;;;;;;;41.50;37.10;;;;;;;;;;5139003;28;20471;-86
2023/02/20 13:27:36;;;;;;;75.90;68.47;;;;;;;;;;5141178;28;20480;-85
2023/02/20 13:30:18;;;;;;;36.37;32.63;;;;;;;;;;5140420;28;20413;-86
2023/02/20 13:32:45;;;;;;;41.47;35.00;;;;;;;;;;5140527;27;20439;-85
2023/02/20 13:35:31;;;;;;;33.77;30.37;;;;;;;;;;5143209;28;20488;-85
2023/02/20 13:38:09;;;;;;;35.70;32.00;;;;;;;;;;5142459;28;20457;-86
2023/02/20 13:40:40;;;;;;;30.47;27.73;;;;;;;;;;5142257;28;20446;-85
2023/02/20 13:43:19;;;;;;;26.97;23.43;;;;;;;;;;5142231;28;20491;-85
2023/02/20 13:45:48;;;;;;;28.87;25.80;;;;;;;;;;5141340;27;20457;-85
2023/02/20 13:48:19;;;;;;;30.10;27.50;;;;;;;;;;5142362;28;20442;-85
2023/02/20 13:50:46;;;;;;;36.07;32.57;;;;;;;;;;5142078;28;20406;-86
2023/02/20 13:53:13;;;;;;;29.27;26.60;;;;;;;;;;5141717;28;20445;-85
2023/02/20 13:55:42;;;;;;;28.03;25.13;;;;;;;;;;5141606;27;20524;-85
2023/02/20 13:58:12;;;;;;;28.80;26.40;;;;;;;;;;5142261;28;20504;-85
2023/02/20 14:00:52;;;;;;;26.83;24.60;;;;;;;;;;5142858;28;20437;-85
2023/02/20 14:03:21;;;;;;;26.43;24.53;;;;;;;;;;5142702;27;20428;-85
2023/02/20 14:06:01;;;;;;;28.67;25.80;;;;;;;;;;5145899;27;20463;-85
2023/02/20 14:08:28;;;;;;;34.10;30.60;;;;;;;;;;5145577;27;20398;-86
2023/02/20 14:10:55;;;;;;;33.13;29.77;;;;;;;;;;5145869;27;20456;-85
2023/02/20 14:13:23;;;;;;;28.53;26.07;;;;;;;;;;5145422;27;20414;-86
2023/02/20 14:15:52;;;;;;;27.37;24.93;;;;;;;;;;5145504;27;20473;-85
2023/02/20 14:18:21;;;;;;;27.33;25.20;;;;;;;;;;5145322;27;20454;-85
2023/02/20 14:20:49;;;;;;;25.63;23.60;;;;;;;;;;5143611;27;20444;-85
2023/02/20 14:23:20;;;;;;;28.80;25.77;;;;;;;;;;5144892;27;20567;-85
2023/02/20 14:25:58;;;;;;;28.70;26.20;;;;;;;;;;5144032;27;20469;-86
2023/02/20 14:28:25;;;;;;;34.10;27.03;;;;;;;;;;5145581;27;20411;-83
2023/02/20 14:31:07;;;;;;;28.90;26.27;;;;;;;;;;5145298;27;20472;-83
2023/02/20 14:33:34;;;;;;;26.53;24.67;;;;;;;;;;5146416;27;20441;-83
2023/02/20 14:36:07;;;;;;;31.07;28.27;;;;;;;;;;5146164;27;20458;-83
2023/02/20 14:38:41;;;;;;;26.43;24.23;;;;;;;;;;5146709;27;20450;-83
2023/02/20 14:41:12;;;;;;;32.93;29.67;;;;;;;;;;5146481;27;20474;-84
2023/02/20 14:43:39;;;;;;;28.27;25.87;;;;;;;;;;5146234;27;20475;-82
2023/02/20 14:46:09;;;;;;;29.03;26.23;;;;;;;;;;5146561;27;20959;-82
2023/02/20 14:48:39;;;;;;;26.40;24.20;;;;;;;;;;5147562;27;20435;-83